Main page
METAR-TAF:

METAR-TAF

Airports :

Klagenfurt Airport

Klagenfurt, Austria

latitude: 46-39N, longitude: 014-20E, elevation: 448 m

Current weather observation

The report was made 27 minutes ago, at 22:50 UTC
Wind 2 kt from the West/Northwest
Temperature -5°C
Humidity 86%
Pressure 1038 hPa
Visibility 10 km or more

METAR: LOWK 212250Z AUTO 30002KT 9999 NSC M05/M07 Q1038

Time: 00:17 (23:17 UTC)

Forecast

The report was made 6 hours and 2 minutes ago, at 17:15 UTC
Forecast valid from 21 at 18 UTC to 22 at 18 UTC
Wind 2 kt from variable directions
Visibility 10 km or more
no clouds below 1500 m and no cumulonimbus

TAF: LOWK 211715Z 2118/2218 VRB02KT CAVOK TX04/2214Z TNM07/2205Z

Weather observations and forecasts of more than 4000 airports (METAR and TAF reports).

The available stations are represented by yellow and red dots on the map.

Hover mouse over dot to see the name of the station.

Then click to see weather observations and forecasts.

To change the map : click on the green buttons with a black cross to zoom in, on the green button with a dash to zoom out, or on the green arrows for adjacent maps.


METAR-TAF: